createdAt,value
2023-04-02T00:01:18.230Z,94478.38
2023-04-02T00:03:44.941Z,94479.56
2023-04-02T00:06:34.296Z,94475.31
2023-04-02T00:09:04.665Z,94481.88
2023-04-02T00:11:41.406Z,94484.66
2023-04-02T00:14:29.177Z,94483.00
2023-04-02T00:16:58.233Z,94484.84
2023-04-02T00:19:31.975Z,94477.03
2023-04-02T00:22:00.369Z,94476.22
2023-04-02T00:24:27.160Z,94481.66
2023-04-02T00:26:55.178Z,94489.94
2023-04-02T00:29:21.793Z,94489.00
2023-04-02T00:31:54.413Z,94492.72
2023-04-02T00:34:33.827Z,94491.59
2023-04-02T00:37:01.751Z,94491.25
2023-04-02T00:39:39.155Z,94486.00
2023-04-02T00:42:06.368Z,94494.59
2023-04-02T00:44:38.599Z,94491.25
2023-04-02T00:47:26.904Z,94488.44
2023-04-02T00:50:01.418Z,94488.97
2023-04-02T00:52:31.705Z,94490.31
2023-04-02T00:55:19.310Z,94502.09
2023-04-02T00:57:46.971Z,94495.84
2023-04-02T01:00:27.699Z,94497.94
2023-04-02T01:03:13.024Z,94496.94
2023-04-02T01:05:42.431Z,94506.16
2023-04-02T01:08:31.344Z,94488.88
2023-04-02T01:11:35.828Z,94504.38
2023-04-02T01:14:37.470Z,94500.81
2023-04-02T01:17:08.662Z,94505.53
2023-04-02T01:19:44.988Z,94502.09
2023-04-02T01:22:19.882Z,94502.47
2023-04-02T01:24:47.313Z,94499.84
2023-04-02T01:27:26.375Z,94494.69
2023-04-02T01:29:58.613Z,94503.63
2023-04-02T01:32:28.577Z,94501.09
2023-04-02T01:34:56.181Z,94507.34
2023-04-02T01:37:36.599Z,94507.72
2023-04-02T01:40:25.014Z,94499.66
2023-04-02T01:42:57.848Z,94510.41
2023-04-02T01:45:24.913Z,94512.84
2023-04-02T01:47:51.888Z,94509.53
2023-04-02T01:50:31.570Z,94513.69
2023-04-02T01:53:04.945Z,94526.03
2023-04-02T01:55:47.055Z,94522.72
2023-04-02T01:58:17.313Z,94526.06
2023-04-02T02:00:53.378Z,94522.66
2023-04-02T02:03:21.681Z,94533.81
2023-04-02T02:05:48.747Z,94529.25
2023-04-02T02:08:45.926Z,94524.25
2023-04-02T02:11:21.544Z,94532.72
2023-04-02T02:14:01.754Z,94530.03
2023-04-02T02:16:31.747Z,94533.59
2023-04-02T02:19:02.764Z,94540.38
2023-04-02T02:21:49.985Z,94544.16
2023-04-02T02:24:31.531Z,94541.59
2023-04-02T02:27:18.927Z,94545.66
2023-04-02T02:29:49.733Z,94548.28
2023-04-02T02:32:20.570Z,94551.09
2023-04-02T02:34:54.720Z,94548.88
2023-04-02T02:37:29.655Z,94549.50
2023-04-02T02:40:01.244Z,94546.28
2023-04-02T02:42:42.810Z,94549.97
2023-04-02T02:45:24.878Z,94558.72
2023-04-02T02:47:53.364Z,94552.28
2023-04-02T02:50:32.635Z,94562.47
2023-04-02T02:53:09.744Z,94564.16
2023-04-02T02:55:38.031Z,94565.53
2023-04-02T02:58:19.355Z,94561.47
2023-04-02T03:01:06.642Z,94561.97
2023-04-02T03:03:35.625Z,94576.69
2023-04-02T03:06:10.190Z,94580.09
2023-04-02T03:08:49.331Z,94586.31
2023-04-02T03:11:52.894Z,94579.22
2023-04-02T03:14:31.554Z,94586.22
2023-04-02T03:17:11.445Z,94578.91
2023-04-02T03:19:50.485Z,94577.00
2023-04-02T03:22:37.193Z,94584.84
2023-04-02T03:25:41.329Z,94587.28
2023-04-02T03:28:14.197Z,94589.25
2023-04-02T03:30:50.282Z,94592.44
2023-04-02T03:33:26.991Z,94601.41
2023-04-02T03:36:13.125Z,94602.41
2023-04-02T03:39:20.645Z,94606.19
2023-04-02T03:42:09.332Z,94605.09
2023-04-02T03:44:46.027Z,94603.06
2023-04-02T03:47:19.062Z,94613.53
2023-04-02T03:49:55.355Z,94614.88
2023-04-02T03:52:27.451Z,94619.41
2023-04-02T03:54:57.004Z,94619.09
2023-04-02T03:57:38.095Z,94621.31
2023-04-02T04:00:14.272Z,94619.31
2023-04-02T04:02:53.132Z,94623.66
2023-04-02T04:05:38.003Z,94627.44
2023-04-02T04:08:18.839Z,94634.06
2023-04-02T04:10:49.951Z,94635.59
2023-04-02T04:13:23.912Z,94630.97
2023-04-02T04:15:57.776Z,94628.56
2023-04-02T04:18:46.523Z,94634.50
2023-04-02T04:21:37.603Z,94639.75
2023-04-02T04:24:21.829Z,94638.34
2023-04-02T04:27:03.673Z,94642.56
2023-04-02T04:29:53.364Z,94639.81
2023-04-02T04:32:27.590Z,94653.94
2023-04-02T04:35:04.562Z,94653.34
2023-04-02T04:37:37.538Z,94652.06
2023-04-02T04:40:13.824Z,94660.81
2023-04-02T04:42:43.276Z,94662.25
2023-04-02T04:45:28.830Z,94669.38
2023-04-02T04:48:37.954Z,94664.31
2023-04-02T04:51:17.098Z,94669.97
2023-04-02T04:53:49.918Z,94669.22
2023-04-02T04:56:24.765Z,94671.16
2023-04-02T04:58:59.336Z,94663.56
2023-04-02T05:01:42.757Z,94672.34
2023-04-02T05:04:35.520Z,94668.84
2023-04-02T05:07:25.253Z,94677.41
2023-04-02T05:10:17.191Z,94680.78
2023-04-02T05:12:52.496Z,94690.91
2023-04-02T05:15:32.654Z,94686.22
2023-04-02T05:18:13.541Z,94696.44
2023-04-02T05:20:54.652Z,94699.59
2023-04-02T05:23:28.542Z,94701.63
2023-04-02T05:26:11.504Z,94708.03
2023-04-02T05:28:50.524Z,94704.84
2023-04-02T05:31:36.063Z,94711.00
2023-04-02T05:34:03.767Z,94712.28
2023-04-02T05:36:32.360Z,94723.38
2023-04-02T05:39:00.936Z,94724.66
2023-04-02T05:41:45.769Z,94726.81
2023-04-02T05:44:35.051Z,94724.28
2023-04-02T05:47:12.409Z,94731.09
2023-04-02T05:49:39.202Z,94732.59
2023-04-02T05:52:15.379Z,94738.47
2023-04-02T05:54:45.665Z,94738.56
2023-04-02T05:57:17.922Z,94741.81
2023-04-02T05:59:50.222Z,94752.88
2023-04-02T06:02:25.044Z,94752.97
2023-04-02T06:05:02.077Z,94755.09
2023-04-02T06:07:59.186Z,94751.75
2023-04-02T06:10:31.489Z,94752.88
2023-04-02T06:13:18.868Z,94754.00
2023-04-02T06:15:47.733Z,94756.81
2023-04-02T06:18:25.229Z,94762.94
2023-04-02T06:20:53.273Z,94766.94
2023-04-02T06:23:34.962Z,94764.25
2023-04-02T06:26:14.568Z,94768.25
2023-04-02T06:28:48.326Z,94766.38
2023-04-02T06:31:40.803Z,94766.88
2023-04-02T06:34:16.637Z,94773.31
2023-04-02T06:36:51.345Z,94774.94
2023-04-02T06:39:22.764Z,94781.16
2023-04-02T06:42:06.297Z,94775.13
2023-04-02T06:44:56.179Z,94780.44
2023-04-02T06:47:47.286Z,94782.03
2023-04-02T06:50:24.006Z,94782.09
2023-04-02T06:52:55.196Z,94788.63
2023-04-02T06:55:31.892Z,94785.25
2023-04-02T06:57:59.354Z,94797.59
2023-04-02T07:00:39.171Z,94799.44
2023-04-02T07:03:23.089Z,94800.94
2023-04-02T07:05:50.774Z,94803.56
2023-04-02T07:08:17.834Z,94814.41
2023-04-02T07:10:44.832Z,94817.66
2023-04-02T07:13:17.974Z,94816.84
2023-04-02T07:15:52.324Z,94823.94
2023-04-02T07:18:37.329Z,94820.94
2023-04-02T07:21:06.131Z,94827.47
2023-04-02T07:23:32.756Z,94828.47
2023-04-02T07:25:59.464Z,94828.09
2023-04-02T07:28:26.327Z,94830.81
2023-04-02T07:30:54.575Z,94824.16
2023-04-02T07:33:24.989Z,94834.25
2023-04-02T07:35:53.203Z,94838.34
2023-04-02T07:38:19.834Z,94831.63
2023-04-02T07:40:46.724Z,94837.84
2023-04-02T07:43:13.259Z,94844.94
2023-04-02T07:45:39.778Z,94851.03
2023-04-02T07:48:08.306Z,94854.84
2023-04-02T07:50:35.454Z,94853.53
2023-04-02T07:53:02.768Z,94858.00
2023-04-02T07:55:29.317Z,94856.88
2023-04-02T07:57:58.140Z,94856.28
2023-04-02T08:00:26.608Z,94863.19
2023-04-02T08:02:53.625Z,94867.72
2023-04-02T08:05:20.335Z,94867.56
2023-04-02T08:07:56.973Z,94867.03
2023-04-02T08:10:24.404Z,94870.84
2023-04-02T08:12:51.106Z,94873.88
2023-04-02T08:15:17.788Z,94877.31
2023-04-02T08:17:46.404Z,94881.88
2023-04-02T08:20:22.437Z,94879.69
2023-04-02T08:22:50.478Z,94881.63
2023-04-02T08:25:17.205Z,94885.75
2023-04-02T08:27:47.105Z,94896.38
2023-04-02T08:30:14.651Z,94894.81
2023-04-02T08:32:41.510Z,94889.19
2023-04-02T08:35:10.895Z,94892.03
2023-04-02T08:37:37.786Z,94892.94
2023-04-02T08:40:06.996Z,94896.53
2023-04-02T08:42:40.257Z,94896.06
2023-04-02T08:45:38.275Z,94901.47
2023-04-02T08:48:06.383Z,94898.16
2023-04-02T08:50:39.902Z,94906.94
2023-04-02T08:53:16.713Z,94905.81
2023-04-02T08:56:17.842Z,94913.72
2023-04-02T08:58:46.468Z,94912.72
2023-04-02T09:02:14.568Z,94913.66
2023-04-02T09:04:41.559Z,94915.72
2023-04-02T09:07:14.176Z,94923.25
2023-04-02T09:09:41.141Z,94923.16
2023-04-02T09:12:18.015Z,94918.22
2023-04-02T09:14:46.368Z,94911.09
2023-04-02T09:17:17.094Z,94925.53
2023-04-02T09:19:52.007Z,94931.97
2023-04-02T09:22:22.738Z,94923.97
2023-04-02T09:24:58.089Z,94936.41
2023-04-02T09:27:30.668Z,94940.25
2023-04-02T09:30:08.796Z,94933.59
2023-04-02T09:33:13.577Z,94935.69
2023-04-02T09:35:49.019Z,94944.94
2023-04-02T09:38:23.132Z,94944.31
2023-04-02T09:40:54.183Z,94945.88
2023-04-02T09:43:24.150Z,94960.47
2023-04-02T09:45:58.266Z,94954.81
2023-04-02T09:48:39.074Z,94949.31
2023-04-02T09:51:21.582Z,94948.81
2023-04-02T09:54:08.494Z,94942.00
2023-04-02T09:56:37.808Z,94937.41
2023-04-02T09:59:21.623Z,94955.34
2023-04-02T10:02:00.726Z,94946.53
2023-04-02T10:04:39.287Z,94962.16
2023-04-02T10:07:06.523Z,94964.47
2023-04-02T10:09:38.044Z,94959.00
2023-04-02T10:12:10.408Z,94964.84
2023-04-02T10:14:43.080Z,94954.81
2023-04-02T10:17:32.557Z,94956.34
2023-04-02T10:20:06.455Z,94961.19
2023-04-02T10:22:32.985Z,94959.44
2023-04-02T10:24:59.655Z,94953.38
2023-04-02T10:27:33.438Z,94954.13
2023-04-02T10:30:25.961Z,94949.81
2023-04-02T10:33:33.073Z,94949.16
2023-04-02T10:36:08.963Z,94958.91
2023-04-02T10:38:44.137Z,94960.44
2023-04-02T10:41:42.959Z,94951.53
2023-04-02T10:44:29.224Z,94963.88
2023-04-02T10:47:14.644Z,94952.88
2023-04-02T10:49:50.652Z,94952.19
2023-04-02T10:52:40.307Z,94960.03
2023-04-02T10:55:18.650Z,94961.31
2023-04-02T10:57:46.526Z,94970.16
2023-04-02T11:00:15.825Z,94973.13
2023-04-02T11:02:54.729Z,94972.06
2023-04-02T11:05:43.351Z,94962.22
2023-04-02T11:08:22.456Z,94977.97
2023-04-02T11:10:55.861Z,94966.53
2023-04-02T11:13:41.498Z,94966.19
2023-04-02T11:16:08.196Z,94967.38
2023-04-02T11:18:38.678Z,94974.09
2023-04-02T11:21:08.069Z,94985.91
2023-04-02T11:24:01.054Z,94981.41
2023-04-02T11:26:47.948Z,94982.28
2023-04-02T11:29:21.131Z,94982.38
2023-04-02T11:31:49.901Z,94987.75
2023-04-02T11:34:42.801Z,94999.50
2023-04-02T11:37:43.800Z,95002.97
2023-04-02T11:40:16.423Z,95001.06
2023-04-02T11:42:48.212Z,94999.97
2023-04-02T11:45:23.923Z,94996.06
2023-04-02T11:47:59.636Z,94999.09
2023-04-02T11:50:37.990Z,94997.16
2023-04-02T11:53:10.878Z,94998.09
2023-04-02T11:55:43.190Z,95000.44
2023-04-02T11:58:32.244Z,94993.59
2023-04-02T12:01:20.124Z,94996.16
2023-04-02T12:04:21.083Z,94999.00
2023-04-02T12:07:20.134Z,95005.66
2023-04-02T12:09:55.434Z,95007.28
2023-04-02T12:12:41.531Z,95010.66
2023-04-02T12:15:28.611Z,95017.81
2023-04-02T12:18:12.364Z,95011.19
2023-04-02T12:20:39.147Z,95014.59
2023-04-02T12:23:06.267Z,95009.13
2023-04-02T12:25:39.966Z,95012.06
2023-04-02T12:28:09.481Z,95015.44
2023-04-02T12:30:37.386Z,95020.00
2023-04-02T12:33:19.425Z,95014.13
2023-04-02T12:35:47.957Z,95016.50
2023-04-02T12:38:22.057Z,95014.97
2023-04-02T12:40:53.419Z,95019.97
2023-04-02T12:43:31.443Z,95017.94
2023-04-02T12:46:01.934Z,95018.38
2023-04-02T12:48:30.624Z,95019.06
2023-04-02T12:50:58.510Z,95031.25
2023-04-02T12:53:32.345Z,95027.78
2023-04-02T12:55:58.747Z,95034.31
2023-04-02T12:58:29.108Z,95029.94
2023-04-02T13:01:21.158Z,95023.16
2023-04-02T13:04:07.295Z,95040.66
2023-04-02T13:06:35.538Z,95038.47
2023-04-02T13:09:05.086Z,95035.84
2023-04-02T13:11:37.236Z,95039.94
2023-04-02T13:14:06.213Z,95042.81
2023-04-02T13:16:38.987Z,95041.53
2023-04-02T13:19:17.579Z,95040.53
2023-04-02T13:21:45.290Z,95039.72
2023-04-02T13:24:20.740Z,95048.72
2023-04-02T13:26:49.607Z,95058.91
2023-04-02T13:29:25.574Z,95050.91
2023-04-02T13:31:54.877Z,95059.59
2023-04-02T13:34:21.906Z,95059.00
2023-04-02T13:36:48.800Z,95057.16
2023-04-02T13:39:15.357Z,95060.63
2023-04-02T13:41:48.390Z,95064.69
2023-04-02T13:44:20.858Z,95063.50
2023-04-02T13:46:47.550Z,95060.56
2023-04-02T13:49:14.742Z,95067.56
2023-04-02T13:51:46.938Z,95060.31
2023-04-02T13:54:22.956Z,95069.50
2023-04-02T13:56:49.750Z,95063.59
2023-04-02T13:59:16.508Z,95070.97
2023-04-02T14:01:46.115Z,95071.13
2023-04-02T14:04:18.948Z,95060.72
2023-04-02T14:07:12.995Z,95077.34
2023-04-02T14:10:05.045Z,95069.59
2023-04-02T14:13:01.655Z,95081.47
2023-04-02T14:15:50.971Z,95087.56
2023-04-02T14:18:26.823Z,95094.75
2023-04-02T14:21:26.451Z,95095.44
2023-04-02T14:24:02.117Z,95096.97
2023-04-02T14:27:10.064Z,95096.84
2023-04-02T14:29:48.697Z,95105.19
2023-04-02T14:32:36.484Z,95107.19
2023-04-02T14:35:25.497Z,95112.81
2023-04-02T14:38:09.496Z,95112.28
2023-04-02T14:40:52.177Z,95119.03
2023-04-02T14:43:30.063Z,95117.56
2023-04-02T14:46:10.131Z,95114.22
2023-04-02T14:48:54.232Z,95116.84
2023-04-02T14:51:38.065Z,95127.50
2023-04-02T14:54:18.298Z,95134.22
2023-04-02T14:56:52.459Z,95133.75
2023-04-02T14:59:37.528Z,95132.00
2023-04-02T15:02:28.775Z,95129.88
2023-04-02T15:05:03.290Z,95137.53
2023-04-02T15:07:41.454Z,95148.09
2023-04-02T15:10:22.904Z,95137.91
2023-04-02T15:12:51.223Z,95142.81
2023-04-02T15:15:33.140Z,95143.97
2023-04-02T15:18:09.358Z,95154.66
2023-04-02T15:20:48.531Z,95159.47
2023-04-02T15:24:12.451Z,95160.28
2023-04-02T15:27:07.150Z,95155.97
2023-04-02T15:30:02.689Z,95160.81
2023-04-02T15:32:32.082Z,95156.47
2023-04-02T15:35:08.494Z,95168.19
2023-04-02T15:38:12.126Z,95168.47
2023-04-02T15:40:51.573Z,95165.69
2023-04-02T15:43:28.737Z,95171.88
2023-04-02T15:46:15.443Z,95173.53
2023-04-02T15:49:20.293Z,95178.06
2023-04-02T15:51:48.417Z,95173.88
2023-04-02T15:54:38.066Z,95186.91
2023-04-02T15:57:10.905Z,95182.97
2023-04-02T15:59:48.012Z,95185.22
2023-04-02T16:02:36.085Z,95189.94
2023-04-02T16:05:17.446Z,95188.41
2023-04-02T16:07:50.081Z,95199.47
2023-04-02T16:10:40.880Z,95199.28
2023-04-02T16:13:17.893Z,95204.00
2023-04-02T16:15:59.037Z,95207.25
2023-04-02T16:18:43.801Z,95217.09
2023-04-02T16:21:16.933Z,95215.63
2023-04-02T16:23:43.559Z,95226.63
2023-04-02T16:26:36.460Z,95227.91
2023-04-02T16:29:09.116Z,95233.56
2023-04-02T16:31:54.561Z,95233.88
2023-04-02T16:35:22.208Z,95238.81
2023-04-02T16:37:56.926Z,95251.78
2023-04-02T16:40:29.371Z,95247.69
2023-04-02T16:43:17.856Z,95256.38
2023-04-02T16:46:28.253Z,95253.25
2023-04-02T16:49:02.702Z,95265.88
2023-04-02T16:51:56.920Z,95267.22
2023-04-02T16:54:41.224Z,95275.03
2023-04-02T16:57:07.620Z,95284.94
2023-04-02T17:00:01.313Z,95283.34
2023-04-02T17:02:57.249Z,95289.69
2023-04-02T17:05:32.540Z,95284.50
2023-04-02T17:08:24.183Z,95295.16
2023-04-02T17:10:57.033Z,95298.75
2023-04-02T17:13:50.358Z,95298.69
2023-04-02T17:16:20.778Z,95309.47
2023-04-02T17:18:50.988Z,95310.94
2023-04-02T17:21:21.550Z,95315.72
2023-04-02T17:23:56.234Z,95320.69
2023-04-02T17:26:27.456Z,95323.81
2023-04-02T17:28:56.007Z,95323.88
2023-04-02T17:31:26.832Z,95334.00
2023-04-02T17:33:53.427Z,95348.97
2023-04-02T17:36:32.812Z,95350.06
2023-04-02T17:39:20.094Z,95348.47
2023-04-02T17:42:02.102Z,95352.94
2023-04-02T17:44:42.588Z,95361.88
2023-04-02T17:47:19.516Z,95367.28
2023-04-02T17:50:11.314Z,95362.09
2023-04-02T17:52:48.014Z,95379.56
2023-04-02T17:55:28.512Z,95374.16
2023-04-02T17:58:12.245Z,95382.97
2023-04-02T18:00:45.646Z,95385.81
2023-04-02T18:03:43.499Z,95399.56
2023-04-02T18:06:28.844Z,95401.13
2023-04-02T18:09:24.336Z,95402.25
2023-04-02T18:12:18.833Z,95412.06
2023-04-02T18:15:11.681Z,95418.69
2023-04-02T18:17:49.954Z,95423.59
2023-04-02T18:20:26.192Z,95428.59
2023-04-02T18:23:21.699Z,95430.88
2023-04-02T18:25:55.590Z,95438.53
2023-04-02T18:28:34.214Z,95451.69
2023-04-02T18:31:34.672Z,95448.16
2023-04-02T18:34:03.865Z,95454.47
2023-04-02T18:37:00.808Z,95460.31
2023-04-02T18:39:53.613Z,95464.88
2023-04-02T18:42:39.942Z,95476.84
2023-04-02T18:45:33.622Z,95472.50
2023-04-02T18:48:24.414Z,95482.56
2023-04-02T18:50:51.113Z,95486.78
2023-04-02T18:53:21.516Z,95481.03
2023-04-02T18:55:57.608Z,95491.13
2023-04-02T18:58:33.858Z,95483.38
2023-04-02T19:01:01.074Z,95495.47
2023-04-02T19:03:46.419Z,95510.38
2023-04-02T19:06:27.140Z,95513.94
2023-04-02T19:09:01.103Z,95517.41
2023-04-02T19:11:31.264Z,95519.78
2023-04-02T19:14:17.284Z,95517.03
2023-04-02T19:17:05.530Z,95525.56
2023-04-02T19:19:59.583Z,95527.19
2023-04-02T19:22:52.346Z,95539.41
2023-04-02T19:25:31.994Z,95533.41
2023-04-02T19:28:18.701Z,95547.13
2023-04-02T19:30:58.562Z,95555.66
2023-04-02T19:33:38.116Z,95564.88
2023-04-02T19:36:10.766Z,95565.38
2023-04-02T19:38:53.542Z,95565.38
2023-04-02T19:41:43.828Z,95571.19
2023-04-02T19:44:13.395Z,95572.44
2023-04-02T19:46:40.710Z,95572.13
2023-04-02T19:49:22.967Z,95580.28
2023-04-02T19:51:50.042Z,95585.09
2023-04-02T19:54:16.625Z,95578.19
2023-04-02T19:56:43.317Z,95584.53
2023-04-02T20:01:43.516Z,95581.50
2023-04-02T20:04:10.099Z,95585.09
2023-04-02T20:06:37.446Z,95592.94
2023-04-02T20:09:03.974Z,95588.25
2023-04-02T20:11:31.021Z,95595.66
2023-04-02T20:13:57.602Z,95601.47
2023-04-02T20:16:24.219Z,95601.16
2023-04-02T20:18:51.501Z,95608.06
2023-04-02T20:21:18.069Z,95608.16
2023-04-02T20:23:44.751Z,95618.91
2023-04-02T20:26:12.605Z,95622.03
2023-04-02T20:28:39.274Z,95621.88
2023-04-02T20:31:12.067Z,95624.69
2023-04-02T20:33:39.151Z,95629.22
2023-04-02T20:36:08.310Z,95629.09
2023-04-02T20:38:35.757Z,95633.63
2023-04-02T20:41:04.113Z,95638.00
2023-04-02T20:43:30.776Z,95644.94
2023-04-02T20:45:59.481Z,95638.69
2023-04-02T20:48:27.495Z,95651.59
2023-04-02T20:50:54.402Z,95660.28
2023-04-02T20:53:20.929Z,95659.28
2023-04-02T20:55:47.574Z,95665.38
2023-04-02T20:58:15.231Z,95667.78
